createdAt,value
2023-04-26T05:01:13.960Z,26.33
2023-04-26T05:02:14.040Z,26.35
2023-04-26T05:03:14.024Z,26.33
2023-04-26T05:04:14.042Z,26.35
2023-04-26T05:05:14.013Z,26.33
2023-04-26T05:06:13.929Z,26.35
2023-04-26T05:07:13.905Z,26.36
2023-04-26T05:08:13.926Z,26.39
2023-04-26T05:09:13.894Z,26.36
2023-04-26T05:10:13.894Z,26.40
2023-04-26T05:11:13.878Z,26.42
2023-04-26T05:12:13.884Z,26.44
2023-04-26T05:13:13.906Z,26.44
2023-04-26T05:14:13.887Z,26.47
2023-04-26T05:15:13.856Z,26.48
2023-04-26T05:16:13.899Z,26.51
2023-04-26T05:17:13.899Z,26.51
2023-04-26T05:18:13.889Z,26.55
2023-04-26T05:19:13.840Z,26.57
2023-04-26T05:20:13.810Z,26.57
2023-04-26T05:21:13.821Z,26.61
2023-04-26T05:22:13.845Z,26.61
2023-04-26T05:23:13.838Z,26.65
2023-04-26T05:24:13.818Z,26.63
2023-04-26T05:25:13.849Z,26.67
2023-04-26T05:26:13.866Z,26.65
2023-04-26T05:27:13.964Z,26.68
2023-04-26T05:28:14.006Z,26.70
2023-04-26T05:29:14.048Z,26.73
2023-04-26T05:30:14.110Z,26.73
2023-04-26T05:31:14.214Z,26.74
2023-04-26T05:32:14.281Z,26.77
2023-04-26T05:33:14.346Z,26.77
2023-04-26T05:34:14.358Z,26.77
2023-04-26T05:35:14.432Z,26.77
2023-04-26T05:36:14.463Z,26.81
2023-04-26T05:37:14.561Z,26.80
2023-04-26T05:38:14.589Z,26.82
2023-04-26T05:39:14.686Z,26.82
2023-04-26T05:40:14.749Z,26.84
2023-04-26T05:41:14.878Z,26.82
2023-04-26T05:42:17.106Z,26.84
2023-04-26T05:43:14.878Z,26.84
2023-04-26T05:44:14.858Z,26.85
2023-04-26T05:45:14.817Z,26.84
2023-04-26T05:46:14.912Z,26.84
2023-04-26T05:47:14.841Z,26.85
2023-04-26T05:48:14.850Z,26.87
2023-04-26T05:49:14.790Z,26.84
2023-04-26T05:50:14.829Z,26.81
2023-04-26T05:51:14.781Z,26.81
2023-04-26T05:52:14.762Z,26.78
2023-04-26T05:53:14.783Z,26.75
2023-04-26T05:54:14.758Z,26.74
2023-04-26T05:55:14.759Z,26.71
2023-04-26T05:56:14.777Z,26.75
2023-04-26T05:57:14.864Z,26.71
2023-04-26T05:58:14.819Z,26.73
2023-04-26T05:59:14.740Z,26.74
2023-04-26T06:00:14.734Z,26.74
2023-04-26T06:01:14.749Z,26.75
2023-04-26T06:02:14.803Z,26.77
2023-04-26T06:03:15.050Z,26.75
2023-04-26T06:04:14.996Z,26.75
2023-04-26T06:05:14.947Z,26.75
2023-04-26T06:06:14.698Z,26.73
2023-04-26T06:07:14.696Z,26.74
2023-04-26T06:08:14.704Z,26.74
2023-04-26T06:09:14.665Z,26.73
2023-04-26T06:10:14.672Z,26.73
2023-04-26T06:11:14.655Z,26.70
2023-04-26T06:12:14.649Z,26.71
2023-04-26T06:13:14.691Z,26.71
2023-04-26T06:14:29.372Z,26.73
2023-04-26T06:15:15.629Z,26.74
2023-04-26T06:16:14.655Z,26.73
2023-04-26T06:17:14.718Z,26.74
2023-04-26T06:18:14.678Z,26.77
2023-04-26T06:19:14.642Z,26.77
2023-04-26T06:20:14.611Z,26.78
2023-04-26T06:21:14.622Z,26.81
2023-04-26T06:22:14.603Z,26.81
2023-04-26T06:23:14.648Z,26.82
2023-04-26T06:24:14.712Z,26.85
2023-04-26T06:25:14.802Z,26.85
2023-04-26T06:26:14.824Z,26.90
2023-04-26T06:27:14.880Z,26.90
2023-04-26T06:28:14.978Z,26.91
2023-04-26T06:29:14.990Z,26.95
2023-04-26T06:30:15.036Z,26.99
2023-04-26T06:31:15.124Z,27.02
2023-04-26T06:32:15.172Z,27.03
2023-04-26T06:33:15.140Z,27.08
2023-04-26T06:34:15.196Z,27.09
2023-04-26T06:35:15.235Z,27.13
2023-04-26T06:36:15.239Z,27.18
2023-04-26T06:37:15.257Z,27.19
2023-04-26T06:38:15.299Z,27.21
2023-04-26T06:39:15.345Z,27.26
2023-04-26T06:40:15.380Z,27.28
2023-04-26T06:41:15.387Z,27.32
2023-04-26T06:42:15.411Z,27.33
2023-04-26T06:43:15.428Z,27.33
2023-04-26T06:44:15.455Z,27.35
2023-04-26T06:45:15.497Z,27.35
2023-04-26T06:46:15.581Z,27.37
2023-04-26T06:47:15.529Z,27.39
2023-04-26T06:48:15.546Z,27.39
2023-04-26T06:49:15.605Z,27.39
2023-04-26T06:50:15.828Z,27.39
2023-04-26T06:51:16.145Z,27.42
2023-04-26T06:52:15.650Z,27.43
2023-04-26T06:53:15.709Z,27.42
2023-04-26T06:54:15.773Z,27.43
2023-04-26T06:55:15.938Z,27.44
2023-04-26T06:56:15.735Z,27.42
2023-04-26T06:57:15.779Z,27.44
2023-04-26T06:58:15.823Z,27.47
2023-04-26T06:59:15.770Z,27.47
2023-04-26T07:00:15.850Z,27.49
2023-04-26T07:01:15.803Z,27.50
2023-04-26T07:02:16.224Z,27.49
2023-04-26T07:03:15.997Z,27.52
2023-04-26T07:04:15.905Z,27.56
2023-04-26T07:05:15.981Z,27.58
2023-04-26T07:06:15.899Z,27.58
2023-04-26T07:07:16.039Z,27.58
2023-04-26T07:08:15.893Z,27.57
2023-04-26T07:09:15.933Z,27.57
2023-04-26T07:10:15.924Z,27.60
2023-04-26T07:11:15.951Z,27.63
2023-04-26T07:12:16.179Z,27.63
2023-04-26T07:13:15.983Z,27.63
2023-04-26T07:14:15.950Z,27.63
2023-04-26T07:15:15.949Z,27.64
2023-04-26T07:16:16.035Z,27.64
2023-04-26T07:17:15.970Z,27.67
2023-04-26T07:18:15.969Z,27.68
2023-04-26T07:19:15.958Z,27.67
2023-04-26T07:20:15.956Z,27.67
2023-04-26T07:21:16.000Z,27.67
2023-04-26T07:22:15.969Z,27.68
2023-04-26T07:23:15.954Z,27.70
2023-04-26T07:24:16.021Z,27.70
2023-04-26T07:25:15.985Z,27.68
2023-04-26T07:26:16.164Z,27.70
2023-04-26T07:27:16.026Z,27.70
2023-04-26T07:28:16.037Z,27.70
2023-04-26T07:29:16.020Z,27.67
2023-04-26T07:30:16.021Z,27.71
2023-04-26T07:31:16.041Z,27.74
2023-04-26T07:32:16.119Z,27.72
2023-04-26T07:33:16.147Z,27.72
2023-04-26T07:34:16.130Z,27.75
2023-04-26T07:35:16.229Z,27.74
2023-04-26T07:36:16.102Z,27.75
2023-04-26T07:37:16.171Z,27.75
2023-04-26T07:38:16.097Z,27.78
2023-04-26T07:39:16.119Z,27.77
2023-04-26T07:40:16.119Z,27.77
2023-04-26T07:41:16.117Z,27.77
2023-04-26T07:42:16.262Z,27.78
2023-04-26T07:43:16.305Z,27.80
2023-04-26T07:44:16.311Z,27.83
2023-04-26T07:45:16.358Z,27.80
2023-04-26T07:46:16.434Z,27.83
2023-04-26T07:47:16.411Z,27.80
2023-04-26T07:48:16.317Z,27.84
2023-04-26T07:49:16.371Z,27.84
2023-04-26T07:50:16.444Z,27.88
2023-04-26T07:51:16.387Z,27.88
2023-04-26T07:52:16.449Z,27.91
2023-04-26T07:53:16.417Z,27.92
2023-04-26T07:54:16.448Z,27.94
2023-04-26T07:55:17.669Z,27.92
2023-04-26T07:56:16.475Z,27.98
2023-04-26T07:57:16.497Z,27.99
2023-04-26T07:58:16.534Z,27.99
2023-04-26T07:59:16.576Z,27.99
2023-04-26T08:00:16.568Z,28.01
2023-04-26T08:01:16.956Z,27.99
2023-04-26T08:02:16.806Z,28.02
2023-04-26T08:03:16.918Z,28.05
2023-04-26T08:04:16.868Z,28.07
2023-04-26T08:05:17.040Z,28.08
2023-04-26T08:06:16.999Z,28.07
2023-04-26T08:07:16.973Z,28.07
2023-04-26T08:08:18.835Z,28.11
2023-04-26T08:09:17.175Z,28.08
2023-04-26T08:10:17.137Z,28.11
2023-04-26T08:11:17.277Z,28.11
2023-04-26T08:12:17.328Z,28.11
2023-04-26T08:13:17.339Z,28.12
2023-04-26T08:14:17.399Z,28.11
2023-04-26T08:15:17.473Z,28.13
2023-04-26T08:16:17.605Z,28.12
2023-04-26T08:17:17.625Z,28.13
2023-04-26T08:18:17.696Z,28.13
2023-04-26T08:19:17.712Z,28.12
2023-04-26T08:20:17.786Z,28.11
2023-04-26T08:21:17.850Z,28.13
2023-04-26T08:22:17.916Z,28.13
2023-04-26T08:23:17.996Z,28.13
2023-04-26T08:24:18.066Z,28.13
2023-04-26T08:25:18.115Z,28.12
2023-04-26T08:26:18.155Z,28.09
2023-04-26T08:27:21.151Z,28.11
2023-04-26T08:28:18.245Z,28.04
2023-04-26T08:29:18.255Z,27.95
2023-04-26T08:30:18.239Z,27.92
2023-04-26T08:31:23.233Z,27.84
2023-04-26T08:32:18.178Z,27.71
2023-04-26T08:33:18.197Z,27.61
2023-04-26T08:34:18.197Z,27.54
2023-04-26T08:35:18.154Z,27.52
2023-04-26T08:36:18.119Z,27.50
2023-04-26T08:37:18.161Z,27.53
2023-04-26T08:38:18.156Z,27.53
2023-04-26T08:39:18.134Z,27.53
2023-04-26T08:40:18.168Z,27.58
2023-04-26T08:41:18.124Z,27.57
2023-04-26T08:42:18.169Z,27.63
2023-04-26T08:43:18.115Z,27.64
2023-04-26T08:44:18.147Z,27.68
2023-04-26T08:45:18.202Z,27.70
2023-04-26T08:46:18.150Z,27.74
2023-04-26T08:47:18.057Z,27.72
2023-04-26T08:48:18.310Z,27.77
2023-04-26T08:49:18.059Z,27.75
2023-04-26T08:50:18.075Z,27.71
2023-04-26T08:51:18.047Z,27.68
2023-04-26T08:52:18.079Z,27.60
2023-04-26T08:53:18.120Z,27.49
2023-04-26T08:54:18.059Z,27.26
2023-04-26T08:55:18.038Z,26.98
2023-04-26T08:56:18.042Z,26.84
2023-04-26T08:57:18.017Z,26.77
2023-04-26T08:58:18.005Z,26.70
2023-04-26T08:59:18.055Z,26.47
2023-04-26T09:00:17.967Z,26.33
2023-04-26T09:01:18.128Z,26.30
2023-04-26T09:02:18.027Z,26.29
2023-04-26T09:03:18.288Z,26.33
2023-04-26T09:04:18.186Z,26.37
2023-04-26T09:05:17.965Z,26.43
2023-04-26T09:06:17.968Z,26.48
2023-04-26T09:07:17.936Z,26.57
2023-04-26T09:08:17.955Z,26.63
2023-04-26T09:09:17.945Z,26.71
2023-04-26T09:10:17.942Z,26.78
2023-04-26T09:11:17.920Z,26.85
2023-04-26T09:12:17.900Z,26.90
2023-04-26T09:13:17.927Z,26.97
2023-04-26T09:14:17.909Z,27.01
2023-04-26T09:15:17.902Z,27.09
2023-04-26T09:16:17.961Z,27.15
2023-04-26T09:17:17.914Z,27.18
2023-04-26T09:18:17.899Z,27.22
2023-04-26T09:19:17.857Z,27.25
2023-04-26T09:20:17.896Z,27.30
2023-04-26T09:21:17.850Z,27.32
2023-04-26T09:22:17.868Z,27.37
2023-04-26T09:23:17.880Z,27.39
2023-04-26T09:24:17.841Z,27.43
2023-04-26T09:25:17.839Z,27.46
2023-04-26T09:26:17.889Z,27.47
2023-04-26T09:27:17.886Z,27.50
2023-04-26T09:28:17.815Z,27.50
2023-04-26T09:29:17.809Z,27.54
2023-04-26T09:30:18.714Z,27.54
2023-04-26T09:31:17.886Z,27.58
2023-04-26T09:32:17.743Z,27.58
2023-04-26T09:33:17.799Z,27.60
2023-04-26T09:34:17.832Z,27.64
2023-04-26T09:35:17.824Z,27.64
2023-04-26T09:36:17.764Z,27.63
2023-04-26T09:37:17.785Z,27.67
2023-04-26T09:38:17.785Z,27.67
2023-04-26T09:39:17.791Z,27.67
2023-04-26T09:40:17.767Z,27.68
2023-04-26T09:41:17.804Z,27.71
2023-04-26T09:42:17.797Z,27.72
2023-04-26T09:43:17.823Z,27.75
2023-04-26T09:44:17.947Z,27.78
2023-04-26T09:45:18.008Z,27.83
2023-04-26T09:46:18.114Z,27.85
2023-04-26T09:47:18.163Z,27.84
2023-04-26T09:48:18.181Z,27.85
2023-04-26T09:49:18.193Z,27.87
2023-04-26T09:50:18.300Z,27.88
2023-04-26T09:51:18.260Z,27.91
2023-04-26T09:52:18.298Z,27.89
2023-04-26T09:53:18.331Z,27.92
2023-04-26T09:54:18.429Z,27.95
2023-04-26T09:55:31.013Z,27.97
2023-04-26T09:56:19.467Z,27.98
2023-04-26T09:57:18.434Z,27.99
2023-04-26T09:58:18.434Z,27.99
2023-04-26T09:59:18.410Z,27.99
2023-04-26T10:00:18.438Z,28.01
2023-04-26T10:01:18.498Z,28.02
2023-04-26T10:02:18.478Z,28.01
2023-04-26T10:03:18.520Z,28.02
2023-04-26T10:04:18.472Z,27.99
2023-04-26T10:05:18.468Z,27.83
2023-04-26T10:06:18.424Z,27.68
2023-04-26T10:07:18.497Z,27.52
2023-04-26T10:08:18.535Z,27.37
2023-04-26T10:09:18.596Z,27.22
2023-04-26T10:10:18.652Z,27.18
2023-04-26T10:11:18.585Z,27.10
2023-04-26T10:12:18.587Z,27.08
2023-04-26T10:13:18.570Z,27.05
2023-04-26T10:14:18.553Z,27.02
2023-04-26T10:15:18.546Z,27.03
2023-04-26T10:16:18.669Z,27.02
2023-04-26T10:17:18.682Z,27.06
2023-04-26T10:18:18.696Z,27.03
2023-04-26T10:19:18.729Z,27.03
2023-04-26T10:20:18.685Z,27.03
2023-04-26T10:21:18.741Z,27.02
2023-04-26T10:22:18.768Z,27.02
2023-04-26T10:23:18.751Z,26.99
2023-04-26T10:24:18.805Z,26.99
2023-04-26T10:25:18.791Z,26.98
2023-04-26T10:26:18.846Z,26.95
2023-04-26T10:27:18.882Z,26.99
2023-04-26T10:28:18.866Z,26.91
2023-04-26T10:29:18.875Z,26.85
2023-04-26T10:30:18.876Z,26.82
2023-04-26T10:31:18.946Z,26.81
2023-04-26T10:32:18.971Z,26.78
2023-04-26T10:33:18.985Z,26.80
2023-04-26T10:34:18.940Z,26.77
2023-04-26T10:35:18.949Z,26.78
2023-04-26T10:36:18.954Z,26.78
2023-04-26T10:37:18.958Z,26.81
2023-04-26T10:38:18.947Z,26.80
2023-04-26T10:39:18.946Z,26.77
2023-04-26T10:40:18.935Z,26.68
2023-04-26T10:41:18.971Z,26.58
2023-04-26T10:42:19.076Z,26.48
2023-04-26T10:43:19.121Z,26.40
2023-04-26T10:44:19.139Z,26.42
2023-04-26T10:45:19.200Z,26.36
2023-04-26T10:46:19.346Z,26.29
2023-04-26T10:47:19.308Z,26.25
2023-04-26T10:48:19.318Z,26.25
2023-04-26T10:49:19.356Z,26.29
2023-04-26T10:50:19.393Z,26.33
2023-04-26T10:51:19.474Z,26.39
2023-04-26T10:52:19.470Z,26.44
2023-04-26T10:53:19.463Z,26.50
2023-04-26T10:54:19.473Z,26.51
2023-04-26T10:55:19.491Z,26.57
2023-04-26T10:56:19.514Z,26.54
2023-04-26T10:57:19.545Z,26.57
2023-04-26T10:58:19.600Z,26.61
2023-04-26T10:59:36.173Z,26.65
2023-04-26T11:00:20.514Z,26.68
2023-04-26T11:01:19.599Z,26.71
2023-04-26T11:02:19.525Z,26.74
2023-04-26T11:03:19.609Z,26.77
2023-04-26T11:04:19.541Z,26.77
2023-04-26T11:05:19.491Z,26.75
2023-04-26T11:06:19.487Z,26.71
2023-04-26T11:07:19.520Z,26.63
2023-04-26T11:08:19.448Z,26.57
2023-04-26T11:09:19.530Z,26.51
2023-04-26T11:10:19.452Z,26.51
2023-04-26T11:11:19.450Z,26.47
2023-04-26T11:12:19.433Z,26.46
2023-04-26T11:13:19.479Z,26.40
2023-04-26T11:14:19.525Z,26.30
2023-04-26T11:15:19.558Z,26.27
2023-04-26T11:16:19.652Z,26.23
2023-04-26T11:17:19.646Z,26.19
2023-04-26T11:18:19.761Z,26.13
2023-04-26T11:19:19.733Z,26.15
2023-04-26T11:20:19.774Z,26.15
2023-04-26T11:21:19.823Z,26.16
2023-04-26T11:22:19.954Z,26.19
2023-04-26T11:23:19.914Z,26.15
2023-04-26T11:24:20.000Z,26.19
2023-04-26T11:25:20.048Z,26.10
2023-04-26T11:26:20.105Z,26.06
2023-04-26T11:27:20.087Z,25.91
2023-04-26T11:28:20.114Z,25.80
2023-04-26T11:29:20.140Z,25.78
2023-04-26T11:30:20.152Z,25.80
2023-04-26T11:31:20.236Z,25.80
2023-04-26T11:32:20.188Z,25.77
2023-04-26T11:33:20.219Z,25.77
2023-04-26T11:34:20.227Z,25.68
2023-04-26T11:35:20.221Z,25.70
2023-04-26T11:36:20.247Z,25.67
2023-04-26T11:37:20.290Z,25.70
2023-04-26T11:38:20.251Z,25.70
2023-04-26T11:39:20.277Z,25.78
2023-04-26T11:40:20.304Z,25.88
2023-04-26T11:41:20.368Z,25.99
2023-04-26T11:42:20.398Z,26.15
2023-04-26T11:43:20.491Z,26.23
2023-04-26T11:44:20.417Z,26.29
2023-04-26T11:45:20.401Z,26.32
2023-04-26T11:46:20.511Z,26.35
2023-04-26T11:47:20.471Z,26.43
2023-04-26T11:48:20.505Z,26.50
2023-04-26T11:49:20.520Z,26.54
2023-04-26T11:50:20.486Z,26.57
2023-04-26T11:51:20.485Z,26.53
2023-04-26T11:52:20.539Z,26.50
2023-04-26T11:53:20.553Z,26.50
2023-04-26T11:54:20.547Z,26.43
2023-04-26T11:55:20.587Z,26.33
2023-04-26T11:56:20.677Z,26.20
2023-04-26T11:57:20.716Z,26.06
2023-04-26T11:58:20.665Z,26.06
2023-04-26T11:59:20.683Z,25.88
2023-04-26T12:00:20.717Z,25.67
2023-04-26T12:01:20.752Z,25.58
2023-04-26T12:02:20.891Z,25.64
2023-04-26T12:03:20.944Z,25.67
2023-04-26T12:04:21.022Z,25.70
2023-04-26T12:05:20.837Z,25.78
2023-04-26T12:06:20.827Z,25.89
2023-04-26T12:07:20.871Z,25.95
2023-04-26T12:08:20.948Z,25.98
2023-04-26T12:09:20.975Z,26.03
2023-04-26T12:10:21.044Z,26.03
2023-04-26T12:11:21.080Z,26.05
2023-04-26T12:12:21.101Z,26.15
2023-04-26T12:13:21.231Z,26.12
2023-04-26T12:14:21.203Z,26.13
2023-04-26T12:15:21.198Z,26.18
2023-04-26T12:17:21.305Z,26.27
2023-04-26T12:18:21.282Z,26.36
2023-04-26T12:19:21.237Z,26.44
2023-04-26T12:20:21.220Z,26.54
2023-04-26T12:21:21.210Z,26.63
2023-04-26T12:22:21.232Z,26.65
2023-04-26T12:23:21.222Z,26.70
2023-04-26T12:24:21.220Z,26.77
2023-04-26T12:25:21.162Z,26.81
2023-04-26T12:26:21.178Z,26.88
2023-04-26T12:27:21.166Z,26.90
2023-04-26T12:28:21.158Z,26.95
2023-04-26T12:29:21.157Z,26.95
2023-04-26T12:30:21.179Z,27.01
2023-04-26T12:31:21.217Z,27.05
2023-04-26T12:32:22.614Z,27.05
2023-04-26T12:33:21.229Z,27.12
2023-04-26T12:34:21.146Z,27.16
2023-04-26T12:35:21.139Z,27.19
2023-04-26T12:36:21.105Z,27.18
2023-04-26T12:37:21.091Z,27.19
2023-04-26T12:38:21.092Z,27.15
2023-04-26T12:39:21.078Z,27.02
2023-04-26T12:40:21.108Z,27.01
2023-04-26T12:41:21.072Z,26.97
2023-04-26T12:42:21.092Z,26.95
2023-04-26T12:43:21.108Z,26.95
2023-04-26T12:44:22.418Z,26.98
2023-04-26T12:45:21.058Z,26.99
2023-04-26T12:46:21.093Z,26.99
2023-04-26T12:47:21.152Z,27.03
2023-04-26T12:48:21.216Z,27.08
2023-04-26T12:49:21.225Z,27.12
2023-04-26T12:50:21.311Z,27.13
2023-04-26T12:51:21.296Z,27.19
2023-04-26T12:52:21.328Z,27.22
2023-04-26T12:53:21.396Z,27.25
2023-04-26T12:54:21.431Z,27.24
2023-04-26T12:55:21.537Z,27.24
2023-04-26T12:56:21.550Z,27.25
2023-04-26T12:57:21.580Z,27.28
2023-04-26T12:58:21.612Z,27.28
2023-04-26T12:59:21.685Z,27.30
2023-04-26T13:00:21.713Z,27.29
2023-04-26T13:01:21.897Z,27.25
2023-04-26T13:02:21.920Z,27.26
2023-04-26T13:03:21.940Z,27.24
2023-04-26T13:04:22.049Z,27.25
2023-04-26T13:05:21.943Z,27.26
2023-04-26T13:06:21.998Z,27.30
2023-04-26T13:07:22.054Z,27.32
2023-04-26T13:08:22.114Z,27.29
2023-04-26T13:09:22.188Z,27.26
2023-04-26T13:10:22.235Z,27.22
2023-04-26T13:11:22.257Z,27.15
2023-04-26T13:12:22.330Z,27.16
2023-04-26T13:13:32.234Z,27.12
2023-04-26T13:14:23.391Z,27.12
2023-04-26T13:15:22.373Z,27.15
2023-04-26T13:16:22.407Z,27.21
2023-04-26T13:17:22.452Z,27.25
2023-04-26T13:18:22.372Z,27.29
2023-04-26T13:19:22.360Z,27.33
2023-04-26T13:20:24.912Z,27.37
2023-04-26T13:21:22.332Z,27.44
2023-04-26T13:22:22.407Z,27.49
2023-04-26T13:23:22.301Z,27.53
2023-04-26T13:24:22.319Z,27.56
2023-04-26T13:25:22.295Z,27.61
2023-04-26T13:26:22.288Z,27.64
2023-04-26T13:27:22.291Z,27.65
2023-04-26T13:28:22.293Z,27.71
2023-04-26T13:29:22.289Z,27.70
2023-04-26T13:30:22.275Z,27.75
2023-04-26T13:31:22.327Z,27.78
2023-04-26T13:32:23.262Z,27.78
2023-04-26T13:33:23.021Z,27.81
2023-04-26T13:34:22.266Z,27.83
2023-04-26T13:35:22.232Z,27.84
2023-04-26T13:36:22.206Z,27.85
2023-04-26T13:37:22.793Z,27.87
2023-04-26T13:38:22.217Z,27.87
2023-04-26T13:39:22.218Z,27.88
2023-04-26T13:40:22.197Z,27.91
2023-04-26T13:41:22.182Z,27.89
2023-04-26T13:42:22.183Z,27.92
2023-04-26T13:43:22.173Z,27.91
2023-04-26T13:44:22.160Z,27.94
2023-04-26T13:45:22.137Z,27.97
2023-04-26T13:46:22.227Z,27.98
2023-04-26T13:47:22.864Z,28.02
2023-04-26T13:48:22.121Z,27.99
2023-04-26T13:49:22.145Z,28.04
2023-04-26T13:50:22.147Z,28.04
2023-04-26T13:51:22.126Z,28.02
2023-04-26T13:52:22.130Z,28.04
2023-04-26T13:53:22.123Z,28.07
2023-04-26T13:54:22.148Z,28.07
2023-04-26T13:55:22.211Z,28.08
2023-04-26T13:56:24.030Z,28.07
2023-04-26T13:57:22.250Z,28.11
2023-04-26T13:58:22.227Z,28.12
2023-04-26T13:59:22.274Z,28.13
2023-04-26T14:00:22.186Z,28.13
2023-04-26T14:01:22.237Z,28.13
2023-04-26T14:02:22.413Z,28.15
2023-04-26T14:03:22.430Z,28.15
2023-04-26T14:04:22.379Z,28.18
2023-04-26T14:05:22.431Z,28.15
2023-04-26T14:06:22.195Z,28.16
2023-04-26T14:07:22.166Z,28.20
2023-04-26T14:08:22.186Z,28.19
2023-04-26T14:09:22.145Z,28.19
2023-04-26T14:10:22.204Z,28.23
2023-04-26T14:11:22.135Z,28.22
2023-04-26T14:12:22.141Z,28.25
2023-04-26T14:13:22.125Z,28.26
2023-04-26T14:14:22.114Z,28.29
2023-04-26T14:15:22.113Z,28.32
2023-04-26T14:16:22.146Z,28.30
2023-04-26T14:17:22.112Z,28.32
2023-04-26T14:18:22.083Z,28.33
2023-04-26T14:19:22.126Z,28.35
2023-04-26T14:20:22.093Z,28.38
2023-04-26T14:21:22.091Z,28.36
2023-04-26T14:22:22.077Z,28.40
2023-04-26T14:23:22.072Z,28.39
2023-04-26T14:24:22.063Z,28.42
2023-04-26T14:25:22.053Z,28.43
2023-04-26T14:26:22.035Z,28.47
2023-04-26T14:27:22.059Z,28.49
2023-04-26T14:28:22.034Z,28.46
2023-04-26T14:29:22.044Z,28.50
2023-04-26T14:30:22.093Z,28.53
2023-04-26T14:31:22.077Z,28.54
2023-04-26T14:32:22.028Z,28.54
2023-04-26T14:33:23.734Z,28.57
2023-04-26T14:34:22.023Z,28.57
2023-04-26T14:35:22.029Z,28.57
2023-04-26T14:36:22.003Z,28.59
2023-04-26T14:37:21.993Z,28.59
2023-04-26T14:38:21.962Z,28.61
2023-04-26T14:39:24.481Z,28.61
2023-04-26T14:40:21.957Z,28.63
2023-04-26T14:41:21.988Z,28.66
2023-04-26T14:42:21.960Z,28.69
2023-04-26T14:43:21.967Z,28.67
2023-04-26T14:44:21.954Z,28.64
2023-04-26T14:45:27.757Z,28.67
2023-04-26T14:46:23.033Z,28.70
2023-04-26T14:47:22.012Z,28.69
2023-04-26T14:48:21.919Z,28.71
2023-04-26T14:49:21.947Z,28.74
2023-04-26T14:50:21.948Z,28.75
2023-04-26T14:51:21.910Z,28.77
2023-04-26T14:52:21.877Z,28.78
2023-04-26T14:53:21.905Z,28.74
2023-04-26T14:54:21.855Z,28.75
2023-04-26T14:55:21.879Z,28.75
2023-04-26T14:56:21.866Z,28.73
2023-04-26T14:57:21.857Z,28.74
2023-04-26T14:58:22.428Z,28.75
2023-04-26T14:59:21.869Z,28.74
2023-04-26T15:00:21.857Z,28.75
2023-04-26T15:01:21.854Z,28.77
2023-04-26T15:02:21.902Z,28.78
2023-04-26T15:03:22.017Z,28.78
2023-04-26T15:04:22.035Z,28.80
2023-04-26T15:05:21.802Z,28.80
2023-04-26T15:06:21.811Z,28.78
2023-04-26T15:07:32.069Z,28.77
2023-04-26T15:08:22.795Z,28.78
2023-04-26T15:09:21.792Z,28.80
2023-04-26T15:10:21.765Z,28.77
2023-04-26T15:11:21.776Z,28.77
2023-04-26T15:12:21.745Z,28.78
2023-04-26T15:13:21.780Z,28.77
2023-04-26T15:14:21.755Z,28.77
2023-04-26T15:15:21.757Z,28.75
2023-04-26T15:16:21.776Z,28.78
2023-04-26T15:17:21.739Z,28.75
2023-04-26T15:18:21.804Z,28.75
2023-04-26T15:19:21.738Z,28.75
2023-04-26T15:20:21.692Z,28.74
2023-04-26T15:21:21.708Z,28.75
2023-04-26T15:22:21.729Z,28.77
2023-04-26T15:23:21.686Z,28.74
2023-04-26T15:24:21.685Z,28.74
2023-04-26T15:25:21.675Z,28.74
2023-04-26T15:26:21.702Z,28.75
2023-04-26T15:27:21.646Z,28.74
2023-04-26T15:28:21.646Z,28.74
2023-04-26T15:29:21.620Z,28.71
2023-04-26T15:30:21.627Z,28.73
2023-04-26T15:31:21.700Z,28.73
2023-04-26T15:32:21.623Z,28.73
2023-04-26T15:33:21.656Z,28.75
2023-04-26T15:34:21.644Z,28.73
2023-04-26T15:35:21.592Z,28.73
2023-04-26T15:36:21.611Z,28.73
2023-04-26T15:37:21.598Z,28.70
2023-04-26T15:38:21.565Z,28.71
2023-04-26T15:39:21.601Z,28.70
2023-04-26T15:40:21.647Z,28.70
2023-04-26T15:41:21.680Z,28.71
2023-04-26T15:42:21.542Z,28.69
2023-04-26T15:43:21.561Z,28.71
2023-04-26T15:44:21.568Z,28.70
2023-04-26T15:45:21.591Z,28.69
2023-04-26T15:46:21.621Z,28.69
2023-04-26T15:47:21.613Z,28.67
2023-04-26T15:48:21.594Z,28.69
2023-04-26T15:49:21.644Z,28.70
2023-04-26T15:50:21.647Z,28.66
2023-04-26T15:51:21.638Z,28.70
2023-04-26T15:52:21.645Z,28.69
2023-04-26T15:53:21.697Z,28.69
2023-04-26T15:54:21.737Z,28.69
2023-04-26T15:55:21.696Z,28.69
2023-04-26T15:56:21.751Z,28.67
2023-04-26T15:57:21.766Z,28.67
2023-04-26T15:58:21.790Z,28.67
2023-04-26T15:59:21.822Z,28.69
2023-04-26T16:00:21.782Z,28.66
2023-04-26T16:01:21.833Z,28.64
2023-04-26T16:02:22.011Z,28.66
2023-04-26T16:03:22.351Z,28.64
2023-04-26T16:04:22.236Z,28.66
2023-04-26T16:05:21.920Z,28.63
2023-04-26T16:06:21.883Z,28.64
2023-04-26T16:07:21.904Z,28.67
2023-04-26T16:08:39.457Z,28.63
2023-04-26T16:09:25.785Z,28.63
2023-04-26T16:10:21.927Z,28.63
2023-04-26T16:11:21.897Z,28.64
2023-04-26T16:12:21.922Z,28.63
2023-04-26T16:13:21.905Z,28.63
2023-04-26T16:14:21.896Z,28.60
2023-04-26T16:15:21.899Z,28.61
2023-04-26T16:16:21.911Z,28.61
2023-04-26T16:17:21.874Z,28.59
2023-04-26T16:18:21.859Z,28.60
2023-04-26T16:19:21.872Z,28.59
2023-04-26T16:20:21.815Z,28.59
2023-04-26T16:21:21.846Z,28.61
2023-04-26T16:22:21.868Z,28.57
2023-04-26T16:23:21.845Z,28.59
2023-04-26T16:24:21.802Z,28.57
2023-04-26T16:25:21.827Z,28.57
2023-04-26T16:26:21.796Z,28.57
2023-04-26T16:27:21.839Z,28.56
2023-04-26T16:28:21.793Z,28.53
2023-04-26T16:29:21.809Z,28.56
2023-04-26T16:30:21.777Z,28.54
2023-04-26T16:31:22.044Z,28.53
2023-04-26T16:32:21.891Z,28.56
2023-04-26T16:33:23.251Z,28.53
2023-04-26T16:34:21.763Z,28.52
2023-04-26T16:35:21.749Z,28.53
2023-04-26T16:36:21.730Z,28.53
2023-04-26T16:37:21.717Z,28.53
2023-04-26T16:38:22.081Z,28.52
2023-04-26T16:39:21.721Z,28.52
2023-04-26T16:40:21.746Z,28.52
2023-04-26T16:41:21.722Z,28.52
2023-04-26T16:42:21.694Z,28.52
2023-04-26T16:43:21.695Z,28.52
2023-04-26T16:44:21.700Z,28.49
2023-04-26T16:45:21.699Z,28.49
2023-04-26T16:46:21.826Z,28.49
2023-04-26T16:47:21.680Z,28.47
2023-04-26T16:48:21.695Z,28.46
2023-04-26T16:49:21.809Z,28.46
2023-04-26T16:50:21.722Z,28.46
2023-04-26T16:51:21.711Z,28.47
2023-04-26T16:52:21.743Z,28.44
2023-04-26T16:53:21.785Z,28.44
2023-04-26T16:54:21.875Z,28.44
2023-04-26T16:55:21.838Z,28.44
2023-04-26T16:56:21.898Z,28.44
2023-04-26T16:57:21.920Z,28.47
2023-04-26T16:58:21.975Z,28.44
2023-04-26T16:59:22.020Z,28.46
2023-04-26T17:00:22.067Z,28.43
